TAF Text Data
IDs:
Format:
Raw Decoded Include METAR

Data at: 0614 UTC 07 Dec 2022

KRKD 070534Z 0706/0806 11009KT P6SM -SHRA BKN016 OVC100
  TEMPO 0706/0708 FEW016
  FM070900 12009G17KT 6SM -SHRA BKN007 OVC015
  FM071300 14010G18KT 2SM -RA BR OVC003
  FM071800 16011G18KT 4SM -SHRA BKN005 OVC009
  FM072200 17006KT 2SM -RA BR OVC003 WS020/18037KT